sensor_id;sensor_type;location;lat;lon;timestamp;temperature;humidity
5459;DHT22;2752;49.992;8.422;2023-01-01T00:01:14;12.50;1.00
5459;DHT22;2752;49.992;8.422;2023-01-01T00:03:41;12.40;1.00
5459;DHT22;2752;49.992;8.422;2023-01-01T00:06:10;12.50;1.00
5459;DHT22;2752;49.992;8.422;2023-01-01T00:08:38;12.60;1.00
5459;DHT22;2752;49.992;8.422;2023-01-01T00:11:05;12.60;1.00
5459;DHT22;2752;49.992;8.422;2023-01-01T00:13:34;12.50;1.00
5459;DHT22;2752;49.992;8.422;2023-01-01T00:16:04;12.50;1.00
5459;DHT22;2752;49.992;8.422;2023-01-01T00:18:31;12.40;1.00
5459;DHT22;2752;49.992;8.422;2023-01-01T00:21:02;12.40;1.00
5459;DHT22;2752;49.992;8.422;2023-01-01T00:23:29;12.50;1.00
5459;DHT22;2752;49.992;8.422;2023-01-01T00:25:55;12.50;1.00
5459;DHT22;2752;49.992;8.422;2023-01-01T00:28:22;12.50;1.00
5459;DHT22;2752;49.992;8.422;2023-01-01T00:30:48;12.50;1.00
5459;DHT22;2752;49.992;8.422;2023-01-01T00:33:16;12.50;1.00
5459;DHT22;2752;49.992;8.422;2023-01-01T00:35:43;12.60;1.00
5459;DHT22;2752;49.992;8.422;2023-01-01T00:38:10;12.80;1.00
5459;DHT22;2752;49.992;8.422;2023-01-01T00:40:36;12.80;1.00
5459;DHT22;2752;49.992;8.422;2023-01-01T00:43:03;12.80;1.00
5459;DHT22;2752;49.992;8.422;2023-01-01T00:45:29;12.80;1.00
5459;DHT22;2752;49.992;8.422;2023-01-01T00:47:56;12.80;1.00
5459;DHT22;2752;49.992;8.422;2023-01-01T00:50:24;12.70;1.00
5459;DHT22;2752;49.992;8.422;2023-01-01T00:52:50;12.80;1.00
5459;DHT22;2752;49.992;8.422;2023-01-01T00:55:17;12.90;1.00
5459;DHT22;2752;49.992;8.422;2023-01-01T00:57:44;13.00;1.00
5459;DHT22;2752;49.992;8.422;2023-01-01T01:00:12;13.00;1.00
5459;DHT22;2752;49.992;8.422;2023-01-01T01:02:39;13.00;1.00
5459;DHT22;2752;49.992;8.422;2023-01-01T01:05:07;12.90;1.00
5459;DHT22;2752;49.992;8.422;2023-01-01T01:07:36;12.80;1.00
5459;DHT22;2752;49.992;8.422;2023-01-01T01:10:04;12.70;1.00
5459;DHT22;2752;49.992;8.422;2023-01-01T01:12:32;12.60;1.00
5459;DHT22;2752;49.992;8.422;2023-01-01T01:14:59;12.50;1.00
5459;DHT22;2752;49.992;8.422;2023-01-01T01:17:26;12.50;1.00
5459;DHT22;2752;49.992;8.422;2023-01-01T01:19:54;12.40;1.00
5459;DHT22;2752;49.992;8.422;2023-01-01T01:22:20;12.40;1.00
5459;DHT22;2752;49.992;8.422;2023-01-01T01:24:49;12.40;1.00
5459;DHT22;2752;49.992;8.422;2023-01-01T01:27:16;12.40;1.00
5459;DHT22;2752;49.992;8.422;2023-01-01T01:29:44;12.40;1.00
5459;DHT22;2752;49.992;8.422;2023-01-01T01:32:12;12.30;1.00
5459;DHT22;2752;49.992;8.422;2023-01-01T01:34:39;12.30;1.00
5459;DHT22;2752;49.992;8.422;2023-01-01T01:37:06;12.20;1.00
5459;DHT22;2752;49.992;8.422;2023-01-01T01:39:32;12.30;1.00
5459;DHT22;2752;49.992;8.422;2023-01-01T01:42:01;12.30;1.00
5459;DHT22;2752;49.992;8.422;2023-01-01T01:44:53;12.20;1.00
5459;DHT22;2752;49.992;8.422;2023-01-01T01:47:24;12.20;1.00
5459;DHT22;2752;49.992;8.422;2023-01-01T01:49:54;12.20;1.00
5459;DHT22;2752;49.992;8.422;2023-01-01T01:52:21;12.10;1.00
5459;DHT22;2752;49.992;8.422;2023-01-01T01:54:48;12.10;1.00
5459;DHT22;2752;49.992;8.422;2023-01-01T01:57:16;11.90;1.00
5459;DHT22;2752;49.992;8.422;2023-01-01T01:59:47;11.80;1.00
5459;DHT22;2752;49.992;8.422;2023-01-01T02:02:20;11.70;1.00
5459;DHT22;2752;49.992;8.422;2023-01-01T02:04:48;11.70;1.00
5459;DHT22;2752;49.992;8.422;2023-01-01T02:07:16;11.50;1.30
5459;DHT22;2752;49.992;8.422;2023-01-01T02:09:43;11.50;3.90
5459;DHT22;2752;49.992;8.422;2023-01-01T02:12:10;11.50;1.80
5459;DHT22;2752;49.992;8.422;2023-01-01T02:14:38;11.40;2.50
5459;DHT22;2752;49.992;8.422;2023-01-01T02:17:08;11.30;3.90
5459;DHT22;2752;49.992;8.422;2023-01-01T02:19:46;11.10;5.70
5459;DHT22;2752;49.992;8.422;2023-01-01T02:22:24;10.90;7.40
5459;DHT22;2752;49.992;8.422;2023-01-01T02:25:05;10.90;10.30
5459;DHT22;2752;49.992;8.422;2023-01-01T02:27:43;10.80;10.60
5459;DHT22;2752;49.992;8.422;2023-01-01T02:30:14;10.70;13.70
5459;DHT22;2752;49.992;8.422;2023-01-01T02:32:45;10.70;13.40
5459;DHT22;2752;49.992;8.422;2023-01-01T02:35:16;10.60;17.30
5459;DHT22;2752;49.992;8.422;2023-01-01T02:38:06;10.60;18.90
5459;DHT22;2752;49.992;8.422;2023-01-01T02:40:37;10.50;23.30
5459;DHT22;2752;49.992;8.422;2023-01-01T02:43:06;10.50;22.50
5459;DHT22;2752;49.992;8.422;2023-01-01T02:45:34;10.60;25.90
5459;DHT22;2752;49.992;8.422;2023-01-01T02:48:05;10.70;24.30
5459;DHT22;2752;49.992;8.422;2023-01-01T02:50:33;10.70;20.30
5459;DHT22;2752;49.992;8.422;2023-01-01T02:53:11;10.70;19.30
5459;DHT22;2752;49.992;8.422;2023-01-01T02:55:49;10.80;18.90
5459;DHT22;2752;49.992;8.422;2023-01-01T02:58:25;10.70;19.50
5459;DHT22;2752;49.992;8.422;2023-01-01T03:01:19;10.80;20.90
5459;DHT22;2752;49.992;8.422;2023-01-01T03:03:55;10.70;18.50
5459;DHT22;2752;49.992;8.422;2023-01-01T03:06:26;10.70;18.70
5459;DHT22;2752;49.992;8.422;2023-01-01T03:09:02;10.60;21.40
5459;DHT22;2752;49.992;8.422;2023-01-01T03:11:36;10.70;25.70
5459;DHT22;2752;49.992;8.422;2023-01-01T03:14:11;10.60;21.60
5459;DHT22;2752;49.992;8.422;2023-01-01T03:16:45;10.60;21.90
5459;DHT22;2752;49.992;8.422;2023-01-01T03:19:16;10.50;26.40
5459;DHT22;2752;49.992;8.422;2023-01-01T03:21:48;10.50;27.10
5459;DHT22;2752;49.992;8.422;2023-01-01T03:24:19;10.30;28.80
5459;DHT22;2752;49.992;8.422;2023-01-01T03:26:52;10.30;32.90
5459;DHT22;2752;49.992;8.422;2023-01-01T03:29:21;10.30;34.40
5459;DHT22;2752;49.992;8.422;2023-01-01T03:31:51;10.20;36.00
5459;DHT22;2752;49.992;8.422;2023-01-01T03:34:22;10.20;37.20
5459;DHT22;2752;49.992;8.422;2023-01-01T03:36:55;10.20;39.10
5459;DHT22;2752;49.992;8.422;2023-01-01T03:39:26;10.20;40.70
5459;DHT22;2752;49.992;8.422;2023-01-01T03:41:57;10.20;40.40
5459;DHT22;2752;49.992;8.422;2023-01-01T03:44:33;10.20;41.00
5459;DHT22;2752;49.992;8.422;2023-01-01T03:47:04;10.30;40.40
5459;DHT22;2752;49.992;8.422;2023-01-01T03:49:31;10.30;41.70
5459;DHT22;2752;49.992;8.422;2023-01-01T03:52:09;10.30;43.00
5459;DHT22;2752;49.992;8.422;2023-01-01T03:54:44;10.30;39.40
5459;DHT22;2752;49.992;8.422;2023-01-01T03:57:19;10.30;41.80
5459;DHT22;2752;49.992;8.422;2023-01-01T03:59:52;10.20;42.60
5459;DHT22;2752;49.992;8.422;2023-01-01T04:02:27;10.30;40.30
5459;DHT22;2752;49.992;8.422;2023-01-01T04:04:55;10.20;40.90
5459;DHT22;2752;49.992;8.422;2023-01-01T04:07:23;10.20;43.60
5459;DHT22;2752;49.992;8.422;2023-01-01T04:09:51;10.20;46.80
5459;DHT22;2752;49.992;8.422;2023-01-01T04:12:19;10.10;46.10
5459;DHT22;2752;49.992;8.422;2023-01-01T04:14:46;10.20;47.70
5459;DHT22;2752;49.992;8.422;2023-01-01T04:17:13;10.20;48.70
5459;DHT22;2752;49.992;8.422;2023-01-01T04:19:41;10.10;46.20
5459;DHT22;2752;49.992;8.422;2023-01-01T04:22:07;10.10;48.00
5459;DHT22;2752;49.992;8.422;2023-01-01T04:24:34;10.10;49.90
5459;DHT22;2752;49.992;8.422;2023-01-01T04:27:00;10.10;50.30
5459;DHT22;2752;49.992;8.422;2023-01-01T04:29:27;10.10;49.30
5459;DHT22;2752;49.992;8.422;2023-01-01T04:31:54;10.20;45.60
5459;DHT22;2752;49.992;8.422;2023-01-01T04:34:20;10.30;47.70
5459;DHT22;2752;49.992;8.422;2023-01-01T04:36:48;10.20;44.50
5459;DHT22;2752;49.992;8.422;2023-01-01T04:39:15;10.10;46.10
5459;DHT22;2752;49.992;8.422;2023-01-01T04:41:41;10.10;48.70
5459;DHT22;2752;49.992;8.422;2023-01-01T04:44:08;10.10;49.70
5459;DHT22;2752;49.992;8.422;2023-01-01T04:46:35;10.00;50.90
5459;DHT22;2752;49.992;8.422;2023-01-01T04:49:01;10.00;52.80
5459;DHT22;2752;49.992;8.422;2023-01-01T04:51:28;10.00;53.20
5459;DHT22;2752;49.992;8.422;2023-01-01T04:53:57;10.00;54.90
5459;DHT22;2752;49.992;8.422;2023-01-01T04:56:24;10.00;56.90
5459;DHT22;2752;49.992;8.422;2023-01-01T04:58:51;10.10;57.30
5459;DHT22;2752;49.992;8.422;2023-01-01T05:01:20;10.30;51.80
5459;DHT22;2752;49.992;8.422;2023-01-01T05:03:47;10.20;48.60
5459;DHT22;2752;49.992;8.422;2023-01-01T05:06:15;10.30;47.30
5459;DHT22;2752;49.992;8.422;2023-01-01T05:08:43;10.40;45.80
5459;DHT22;2752;49.992;8.422;2023-01-01T05:11:12;10.40;44.10
5459;DHT22;2752;49.992;8.422;2023-01-01T05:13:42;10.50;39.60
5459;DHT22;2752;49.992;8.422;2023-01-01T05:16:10;10.50;40.20
5459;DHT22;2752;49.992;8.422;2023-01-01T05:18:38;10.60;38.70
5459;DHT22;2752;49.992;8.422;2023-01-01T05:21:07;10.70;34.50
5459;DHT22;2752;49.992;8.422;2023-01-01T05:23:34;10.70;33.30
5459;DHT22;2752;49.992;8.422;2023-01-01T05:26:08;10.70;31.30
5459;DHT22;2752;49.992;8.422;2023-01-01T05:28:36;10.80;30.30
5459;DHT22;2752;49.992;8.422;2023-01-01T05:31:05;10.70;30.20
5459;DHT22;2752;49.992;8.422;2023-01-01T05:33:32;10.80;27.20
5459;DHT22;2752;49.992;8.422;2023-01-01T05:35:59;10.80;27.30
5459;DHT22;2752;49.992;8.422;2023-01-01T05:38:26;10.90;26.60
5459;DHT22;2752;49.992;8.422;2023-01-01T05:40:53;11.00;24.20
5459;DHT22;2752;49.992;8.422;2023-01-01T05:43:19;11.10;19.80
5459;DHT22;2752;49.992;8.422;2023-01-01T05:45:47;11.10;19.00
5459;DHT22;2752;49.992;8.422;2023-01-01T05:48:14;11.30;19.50
5459;DHT22;2752;49.992;8.422;2023-01-01T05:50:41;11.40;17.20
5459;DHT22;2752;49.992;8.422;2023-01-01T05:53:07;11.30;16.00
5459;DHT22;2752;49.992;8.422;2023-01-01T05:55:34;11.20;16.50
5459;DHT22;2752;49.992;8.422;2023-01-01T05:58:00;11.10;18.20
5459;DHT22;2752;49.992;8.422;2023-01-01T06:00:27;11.10;19.20
5459;DHT22;2752;49.992;8.422;2023-01-01T06:02:55;11.10;19.20
5459;DHT22;2752;49.992;8.422;2023-01-01T06:05:21;11.10;19.00
5459;DHT22;2752;49.992;8.422;2023-01-01T06:07:48;11.10;18.50
5459;DHT22;2752;49.992;8.422;2023-01-01T06:10:15;11.10;18.50
5459;DHT22;2752;49.992;8.422;2023-01-01T06:12:41;11.10;18.40
5459;DHT22;2752;49.992;8.422;2023-01-01T06:15:08;11.10;18.30
5459;DHT22;2752;49.992;8.422;2023-01-01T06:17:35;11.10;18.70
5459;DHT22;2752;49.992;8.422;2023-01-01T06:20:04;11.10;18.60
5459;DHT22;2752;49.992;8.422;2023-01-01T06:22:31;11.10;18.50
5459;DHT22;2752;49.992;8.422;2023-01-01T06:24:57;11.10;18.40
5459;DHT22;2752;49.992;8.422;2023-01-01T06:27:24;11.20;16.50
5459;DHT22;2752;49.992;8.422;2023-01-01T06:29:50;11.20;16.50
5459;DHT22;2752;49.992;8.422;2023-01-01T06:32:17;11.20;16.00
5459;DHT22;2752;49.992;8.422;2023-01-01T06:34:44;11.20;16.30
5459;DHT22;2752;49.992;8.422;2023-01-01T06:37:12;11.10;16.50
5459;DHT22;2752;49.992;8.422;2023-01-01T06:39:38;11.10;16.90
5459;DHT22;2752;49.992;8.422;2023-01-01T06:42:05;11.10;16.60
5459;DHT22;2752;49.992;8.422;2023-01-01T06:44:31;11.20;15.60
5459;DHT22;2752;49.992;8.422;2023-01-01T06:46:58;11.10;14.40
5459;DHT22;2752;49.992;8.422;2023-01-01T06:49:25;11.10;15.50
5459;DHT22;2752;49.992;8.422;2023-01-01T06:51:51;11.00;15.30
5459;DHT22;2752;49.992;8.422;2023-01-01T06:54:19;11.10;15.60
5459;DHT22;2752;49.992;8.422;2023-01-01T06:56:46;11.10;14.00
5459;DHT22;2752;49.992;8.422;2023-01-01T06:59:12;11.00;15.30
5459;DHT22;2752;49.992;8.422;2023-01-01T07:01:39;10.90;16.50
5459;DHT22;2752;49.992;8.422;2023-01-01T07:04:07;10.80;17.90
5459;DHT22;2752;49.992;8.422;2023-01-01T07:06:36;10.70;19.10
5459;DHT22;2752;49.992;8.422;2023-01-01T07:09:03;10.70;20.70
5459;DHT22;2752;49.992;8.422;2023-01-01T07:11:32;10.60;21.20
5459;DHT22;2752;49.992;8.422;2023-01-01T07:13:59;10.50;22.30
5459;DHT22;2752;49.992;8.422;2023-01-01T07:16:25;10.50;23.40
5459;DHT22;2752;49.992;8.422;2023-01-01T07:18:52;10.60;22.60
5459;DHT22;2752;49.992;8.422;2023-01-01T07:21:28;10.50;21.60
5459;DHT22;2752;49.992;8.422;2023-01-01T07:23:54;10.40;22.30
5459;DHT22;2752;49.992;8.422;2023-01-01T07:26:22;10.50;23.20
5459;DHT22;2752;49.992;8.422;2023-01-01T07:28:50;10.60;19.90
5459;DHT22;2752;49.992;8.422;2023-01-01T07:31:17;10.60;19.40
5459;DHT22;2752;49.992;8.422;2023-01-01T07:33:44;10.50;18.50
5459;DHT22;2752;49.992;8.422;2023-01-01T07:36:11;10.40;21.70
5459;DHT22;2752;49.992;8.422;2023-01-01T07:38:39;10.40;21.70
5459;DHT22;2752;49.992;8.422;2023-01-01T07:41:06;10.40;22.80
5459;DHT22;2752;49.992;8.422;2023-01-01T07:43:32;10.30;22.50
5459;DHT22;2752;49.992;8.422;2023-01-01T07:46:00;10.30;24.10
5459;DHT22;2752;49.992;8.422;2023-01-01T07:48:28;10.30;27.00
5459;DHT22;2752;49.992;8.422;2023-01-01T07:50:54;10.30;28.30
5459;DHT22;2752;49.992;8.422;2023-01-01T07:53:22;10.30;26.80
5459;DHT22;2752;49.992;8.422;2023-01-01T07:55:49;10.30;28.20
5459;DHT22;2752;49.992;8.422;2023-01-01T07:58:15;10.30;29.70
5459;DHT22;2752;49.992;8.422;2023-01-01T08:00:45;10.30;28.20
5459;DHT22;2752;49.992;8.422;2023-01-01T08:03:14;10.40;28.50
5459;DHT22;2752;49.992;8.422;2023-01-01T08:05:41;10.50;26.50
5459;DHT22;2752;49.992;8.422;2023-01-01T08:08:08;10.40;26.10
5459;DHT22;2752;49.992;8.422;2023-01-01T08:10:35;10.40;27.40
5459;DHT22;2752;49.992;8.422;2023-01-01T08:13:03;10.50;27.50
5459;DHT22;2752;49.992;8.422;2023-01-01T08:15:30;10.60;24.50
5459;DHT22;2752;49.992;8.422;2023-01-01T08:17:58;10.70;21.10
5459;DHT22;2752;49.992;8.422;2023-01-01T08:20:27;10.70;19.90
5459;DHT22;2752;49.992;8.422;2023-01-01T08:22:54;10.60;21.50
5459;DHT22;2752;49.992;8.422;2023-01-01T08:25:21;10.60;23.30
5459;DHT22;2752;49.992;8.422;2023-01-01T08:27:48;10.60;23.40
5459;DHT22;2752;49.992;8.422;2023-01-01T08:30:15;10.70;22.60
5459;DHT22;2752;49.992;8.422;2023-01-01T08:32:42;10.70;21.60
5459;DHT22;2752;49.992;8.422;2023-01-01T08:35:09;10.70;22.60
5459;DHT22;2752;49.992;8.422;2023-01-01T08:37:37;10.90;23.00
5459;DHT22;2752;49.992;8.422;2023-01-01T08:40:04;10.90;18.60
5459;DHT22;2752;49.992;8.422;2023-01-01T08:42:31;11.00;18.60
5459;DHT22;2752;49.992;8.422;2023-01-01T08:44:58;11.10;17.80
5459;DHT22;2752;49.992;8.422;2023-01-01T08:47:25;11.10;17.80
5459;DHT22;2752;49.992;8.422;2023-01-01T08:49:52;11.40;16.20
5459;DHT22;2752;49.992;8.422;2023-01-01T08:52:19;11.60;11.40
5459;DHT22;2752;49.992;8.422;2023-01-01T08:54:47;11.70;8.20
5459;DHT22;2752;49.992;8.422;2023-01-01T08:57:14;11.90;7.40
5459;DHT22;2752;49.992;8.422;2023-01-01T08:59:41;12.10;3.60
5459;DHT22;2752;49.992;8.422;2023-01-01T09:02:08;12.20;1.00
5459;DHT22;2752;49.992;8.422;2023-01-01T09:04:35;12.30;1.00
5459;DHT22;2752;49.992;8.422;2023-01-01T09:07:02;12.40;1.00
5459;DHT22;2752;49.992;8.422;2023-01-01T09:09:29;12.50;1.00
5459;DHT22;2752;49.992;8.422;2023-01-01T09:11:57;12.60;1.00
5459;DHT22;2752;49.992;8.422;2023-01-01T09:14:28;12.70;1.00
5459;DHT22;2752;49.992;8.422;2023-01-01T09:16:54;12.70;1.00
5459;DHT22;2752;49.992;8.422;2023-01-01T09:19:21;12.80;1.00
5459;DHT22;2752;49.992;8.422;2023-01-01T09:21:48;13.00;1.00
5459;DHT22;2752;49.992;8.422;2023-01-01T09:24:14;13.10;1.00
5459;DHT22;2752;49.992;8.422;2023-01-01T09:26:41;13.20;1.00
5459;DHT22;2752;49.992;8.422;2023-01-01T09:29:09;13.30;1.00
5459;DHT22;2752;49.992;8.422;2023-01-01T09:31:35;13.30;1.00
5459;DHT22;2752;49.992;8.422;2023-01-01T09:34:02;13.30;1.00
5459;DHT22;2752;49.992;8.422;2023-01-01T09:36:30;13.30;1.00
5459;DHT22;2752;49.992;8.422;2023-01-01T09:38:58;13.40;1.00
5459;DHT22;2752;49.992;8.422;2023-01-01T09:41:35;13.50;1.00
5459;DHT22;2752;49.992;8.422;2023-01-01T09:44:17;13.60;1.00
5459;DHT22;2752;49.992;8.422;2023-01-01T09:46:46;13.60;1.00
5459;DHT22;2752;49.992;8.422;2023-01-01T09:49:17;13.60;1.00
5459;DHT22;2752;49.992;8.422;2023-01-01T09:51:52;13.70;1.00
5459;DHT22;2752;49.992;8.422;2023-01-01T09:54:26;13.80;1.00
5459;DHT22;2752;49.992;8.422;2023-01-01T09:56:55;13.90;1.00
5459;DHT22;2752;49.992;8.422;2023-01-01T09:59:24;14.00;1.00
5459;DHT22;2752;49.992;8.422;2023-01-01T10:01:58;14.00;1.00
5459;DHT22;2752;49.992;8.422;2023-01-01T10:04:36;14.10;1.00
5459;DHT22;2752;49.992;8.422;2023-01-01T10:07:11;14.30;1.00
5459;DHT22;2752;49.992;8.422;2023-01-01T10:09:45;14.30;1.00
5459;DHT22;2752;49.992;8.422;2023-01-01T10:12:18;14.30;1.00
5459;DHT22;2752;49.992;8.422;2023-01-01T10:14:51;14.30;1.00
5459;DHT22;2752;49.992;8.422;2023-01-01T10:17:29;14.40;1.00
5459;DHT22;2752;49.992;8.422;2023-01-01T10:20:00;14.50;1.00
5459;DHT22;2752;49.992;8.422;2023-01-01T10:22:33;14.50;1.00
5459;DHT22;2752;49.992;8.422;2023-01-01T10:25:05;14.60;1.00
5459;DHT22;2752;49.992;8.422;2023-01-01T10:27:36;14.70;1.00
5459;DHT22;2752;49.992;8.422;2023-01-01T10:30:13;14.80;1.00
5459;DHT22;2752;49.992;8.422;2023-01-01T10:32:40;14.80;1.00
5459;DHT22;2752;49.992;8.422;2023-01-01T10:35:13;14.90;1.00
5459;DHT22;2752;49.992;8.422;2023-01-01T10:37:40;15.10;1.00
5459;DHT22;2752;49.992;8.422;2023-01-01T10:40:13;15.10;1.00
5459;DHT22;2752;49.992;8.422;2023-01-01T10:42:41;15.20;1.00
5459;DHT22;2752;49.992;8.422;2023-01-01T10:45:14;15.00;1.00
5459;DHT22;2752;49.992;8.422;2023-01-01T10:48:09;15.00;1.00
5459;DHT22;2752;49.992;8.422;2023-01-01T10:50:41;14.90;1.00
5459;DHT22;2752;49.992;8.422;2023-01-01T10:53:26;14.90;1.00
5459;DHT22;2752;49.992;8.422;2023-01-01T10:56:07;14.80;1.00
5459;DHT22;2752;49.992;8.422;2023-01-01T10:58:38;14.90;1.00
5459;DHT22;2752;49.992;8.422;2023-01-01T11:01:09;14.90;1.00
5459;DHT22;2752;49.992;8.422;2023-01-01T11:03:36;15.00;1.00
5459;DHT22;2752;49.992;8.422;2023-01-01T11:06:13;15.00;1.00
5459;DHT22;2752;49.992;8.422;2023-01-01T11:08:46;15.10;1.00
5459;DHT22;2752;49.992;8.422;2023-01-01T11:11:20;15.10;1.00
5459;DHT22;2752;49.992;8.422;2023-01-01T11:13:49;15.10;1.00
5459;DHT22;2752;49.992;8.422;2023-01-01T11:16:17;15.00;1.00
5459;DHT22;2752;49.992;8.422;2023-01-01T11:18:44;15.10;1.00
5459;DHT22;2752;49.992;8.422;2023-01-01T11:21:18;15.10;1.00
5459;DHT22;2752;49.992;8.422;2023-01-01T11:23:46;15.10;1.00
5459;DHT22;2752;49.992;8.422;2023-01-01T11:26:21;15.10;1.00
5459;DHT22;2752;49.992;8.422;2023-01-01T11:29:00;15.30;1.00
5459;DHT22;2752;49.992;8.422;2023-01-01T11:31:33;15.20;1.00
5459;DHT22;2752;49.992;8.422;2023-01-01T11:34:03;15.30;1.00
5459;DHT22;2752;49.992;8.422;2023-01-01T11:36:31;15.30;1.00
5459;DHT22;2752;49.992;8.422;2023-01-01T11:39:19;15.30;1.00
5459;DHT22;2752;49.992;8.422;2023-01-01T11:41:48;15.50;1.00
5459;DHT22;2752;49.992;8.422;2023-01-01T11:44:25;15.50;1.00
5459;DHT22;2752;49.992;8.422;2023-01-01T11:46:55;15.70;1.00
5459;DHT22;2752;49.992;8.422;2023-01-01T11:49:25;15.70;1.00
5459;DHT22;2752;49.992;8.422;2023-01-01T11:51:53;15.90;1.00
5459;DHT22;2752;49.992;8.422;2023-01-01T11:54:24;15.80;1.00
5459;DHT22;2752;49.992;8.422;2023-01-01T11:56:59;15.80;1.00
5459;DHT22;2752;49.992;8.422;2023-01-01T11:59:38;15.80;1.00
5459;DHT22;2752;49.992;8.422;2023-01-01T12:02:12;15.80;1.00
5459;DHT22;2752;49.992;8.422;2023-01-01T12:04:44;15.70;1.00
5459;DHT22;2752;49.992;8.422;2023-01-01T12:07:14;15.70;1.00
5459;DHT22;2752;49.992;8.422;2023-01-01T12:09:46;15.70;1.00
5459;DHT22;2752;49.992;8.422;2023-01-01T12:12:20;15.70;1.00
5459;DHT22;2752;49.992;8.422;2023-01-01T12:14:55;15.70;1.00
5459;DHT22;2752;49.992;8.422;2023-01-01T12:17:27;15.90;1.00
5459;DHT22;2752;49.992;8.422;2023-01-01T12:20:01;15.70;1.00
5459;DHT22;2752;49.992;8.422;2023-01-01T12:22:30;15.80;1.00
5459;DHT22;2752;49.992;8.422;2023-01-01T12:24:57;15.70;1.00
5459;DHT22;2752;49.992;8.422;2023-01-01T12:27:40;15.80;1.00
5459;DHT22;2752;49.992;8.422;2023-01-01T12:30:19;15.90;1.00
5459;DHT22;2752;49.992;8.422;2023-01-01T12:33:12;15.90;1.00
5459;DHT22;2752;49.992;8.422;2023-01-01T12:35:51;15.90;1.00
5459;DHT22;2752;49.992;8.422;2023-01-01T12:38:32;15.80;1.00
5459;DHT22;2752;49.992;8.422;2023-01-01T12:41:07;15.80;1.00
5459;DHT22;2752;49.992;8.422;2023-01-01T12:43:42;15.90;1.00
5459;DHT22;2752;49.992;8.422;2023-01-01T12:46:25;15.90;1.00
5459;DHT22;2752;49.992;8.422;2023-01-01T12:49:22;15.90;1.00
5459;DHT22;2752;49.992;8.422;2023-01-01T12:52:03;15.80;1.00
5459;DHT22;2752;49.992;8.422;2023-01-01T12:54:46;15.80;1.00
5459;DHT22;2752;49.992;8.422;2023-01-01T12:57:24;15.80;1.00
5459;DHT22;2752;49.992;8.422;2023-01-01T12:59:54;15.80;1.00
5459;DHT22;2752;49.992;8.422;2023-01-01T13:02:23;15.70;1.00
5459;DHT22;2752;49.992;8.422;2023-01-01T13:04:56;15.70;1.00
5459;DHT22;2752;49.992;8.422;2023-01-01T13:07:28;15.80;1.00
5459;DHT22;2752;49.992;8.422;2023-01-01T13:10:01;15.70;1.00
5459;DHT22;2752;49.992;8.422;2023-01-01T13:12:29;15.70;1.00
5459;DHT22;2752;49.992;8.422;2023-01-01T13:14:57;15.70;1.00
5459;DHT22;2752;49.992;8.422;2023-01-01T13:17:25;15.70;1.00
5459;DHT22;2752;49.992;8.422;2023-01-01T13:19:57;15.80;1.00
5459;DHT22;2752;49.992;8.422;2023-01-01T13:22:38;15.60;1.00
5459;DHT22;2752;49.992;8.422;2023-01-01T13:25:18;15.60;1.00
5459;DHT22;2752;49.992;8.422;2023-01-01T13:28:03;15.50;1.00
5459;DHT22;2752;49.992;8.422;2023-01-01T13:30:49;15.50;1.00
5459;DHT22;2752;49.992;8.422;2023-01-01T13:33:19;15.50;1.00
5459;DHT22;2752;49.992;8.422;2023-01-01T13:38:57;15.40;1.00
5459;DHT22;2752;49.992;8.422;2023-01-01T13:41:29;15.30;1.00
5459;DHT22;2752;49.992;8.422;2023-01-01T13:44:15;15.20;1.00
5459;DHT22;2752;49.992;8.422;2023-01-01T13:46:53;15.10;1.00
5459;DHT22;2752;49.992;8.422;2023-01-01T13:49:35;15.10;1.00
5459;DHT22;2752;49.992;8.422;2023-01-01T13:52:26;15.10;1.00
5459;DHT22;2752;49.992;8.422;2023-01-01T13:58:19;15.00;1.00
5459;DHT22;2752;49.992;8.422;2023-01-01T14:01:13;14.90;1.00
5459;DHT22;2752;49.992;8.422;2023-01-01T14:03:47;14.80;1.00
5459;DHT22;2752;49.992;8.422;2023-01-01T14:06:21;15.00;1.00
5459;DHT22;2752;49.992;8.422;2023-01-01T14:09:00;14.80;1.00
5459;DHT22;2752;49.992;8.422;2023-01-01T14:11:27;14.70;1.00
5459;DHT22;2752;49.992;8.422;2023-01-01T14:13:55;14.70;1.00
5459;DHT22;2752;49.992;8.422;2023-01-01T14:16:21;14.70;1.00
5459;DHT22;2752;49.992;8.422;2023-01-01T14:18:53;14.80;1.00
5459;DHT22;2752;49.992;8.422;2023-01-01T14:21:22;14.80;1.00
5459;DHT22;2752;49.992;8.422;2023-01-01T14:23:52;14.70;1.00
5459;DHT22;2752;49.992;8.422;2023-01-01T14:26:23;14.70;1.00
5459;DHT22;2752;49.992;8.422;2023-01-01T14:28:52;14.70;1.00
5459;DHT22;2752;49.992;8.422;2023-01-01T14:31:23;14.70;1.00
5459;DHT22;2752;49.992;8.422;2023-01-01T14:33:51;14.60;1.00
5459;DHT22;2752;49.992;8.422;2023-01-01T14:36:20;14.50;1.00
5459;DHT22;2752;49.992;8.422;2023-01-01T14:38:49;14.50;1.00
5459;DHT22;2752;49.992;8.422;2023-01-01T14:41:19;14.50;1.00
5459;DHT22;2752;49.992;8.422;2023-01-01T14:43:51;14.50;1.00
5459;DHT22;2752;49.992;8.422;2023-01-01T14:46:22;14.50;1.00
5459;DHT22;2752;49.992;8.422;2023-01-01T14:48:51;14.50;1.00
5459;DHT22;2752;49.992;8.422;2023-01-01T14:51:20;14.40;1.00
5459;DHT22;2752;49.992;8.422;2023-01-01T14:53:49;14.30;1.00
5459;DHT22;2752;49.992;8.422;2023-01-01T14:56:24;14.30;1.00
5459;DHT22;2752;49.992;8.422;2023-01-01T14:58:51;14.30;1.00
5459;DHT22;2752;49.992;8.422;2023-01-01T15:01:24;14.20;1.00
5459;DHT22;2752;49.992;8.422;2023-01-01T15:03:58;14.20;1.00
5459;DHT22;2752;49.992;8.422;2023-01-01T15:08:54;14.20;1.00
5459;DHT22;2752;49.992;8.422;2023-01-01T15:11:21;14.20;1.00
5459;DHT22;2752;49.992;8.422;2023-01-01T15:13:53;14.30;1.00
5459;DHT22;2752;49.992;8.422;2023-01-01T15:18:49;14.20;1.00
5459;DHT22;2752;49.992;8.422;2023-01-01T15:21:23;14.20;1.00
5459;DHT22;2752;49.992;8.422;2023-01-01T15:24:00;14.10;1.00
5459;DHT22;2752;49.992;8.422;2023-01-01T15:26:29;14.20;1.00
5459;DHT22;2752;49.992;8.422;2023-01-01T15:28:56;14.20;1.00
5459;DHT22;2752;49.992;8.422;2023-01-01T15:31:33;14.10;1.00
5459;DHT22;2752;49.992;8.422;2023-01-01T15:34:02;14.00;1.00
5459;DHT22;2752;49.992;8.422;2023-01-01T15:36:28;14.00;1.00
5459;DHT22;2752;49.992;8.422;2023-01-01T15:38:55;14.00;1.00
5459;DHT22;2752;49.992;8.422;2023-01-01T15:41:23;14.10;1.00
5459;DHT22;2752;49.992;8.422;2023-01-01T15:43:50;14.10;1.00
5459;DHT22;2752;49.992;8.422;2023-01-01T15:46:19;14.10;1.00
5459;DHT22;2752;49.992;8.422;2023-01-01T15:48:47;14.00;1.00
5459;DHT22;2752;49.992;8.422;2023-01-01T15:51:16;14.00;1.00
5459;DHT22;2752;49.992;8.422;2023-01-01T15:53:50;14.10;1.00
5459;DHT22;2752;49.992;8.422;2023-01-01T15:56:20;14.10;1.00
5459;DHT22;2752;49.992;8.422;2023-01-01T15:58:51;14.00;1.00
5459;DHT22;2752;49.992;8.422;2023-01-01T16:01:21;14.10;1.00
5459;DHT22;2752;49.992;8.422;2023-01-01T16:03:50;14.00;1.00
5459;DHT22;2752;49.992;8.422;2023-01-01T16:06:20;14.00;1.00
5459;DHT22;2752;49.992;8.422;2023-01-01T16:08:47;14.00;1.00
5459;DHT22;2752;49.992;8.422;2023-01-01T16:11:14;14.00;1.00
5459;DHT22;2752;49.992;8.422;2023-01-01T16:13:40;14.20;1.00
5459;DHT22;2752;49.992;8.422;2023-01-01T16:16:25;14.20;1.00
5459;DHT22;2752;49.992;8.422;2023-01-01T16:18:52;14.20;1.00
5459;DHT22;2752;49.992;8.422;2023-01-01T16:21:21;14.10;1.00
5459;DHT22;2752;49.992;8.422;2023-01-01T16:23:49;14.10;1.00
5459;DHT22;2752;49.992;8.422;2023-01-01T16:26:15;14.20;1.00
5459;DHT22;2752;49.992;8.422;2023-01-01T16:28:42;14.10;1.00
5459;DHT22;2752;49.992;8.422;2023-01-01T16:31:13;14.20;1.00
5459;DHT22;2752;49.992;8.422;2023-01-01T16:33:41;14.20;1.00
5459;DHT22;2752;49.992;8.422;2023-01-01T16:36:10;14.10;1.00
5459;DHT22;2752;49.992;8.422;2023-01-01T16:38:38;14.00;1.00
5459;DHT22;2752;49.992;8.422;2023-01-01T16:41:04;13.90;1.00
5459;DHT22;2752;49.992;8.422;2023-01-01T16:43:31;13.80;1.00